sensor_id;sensor_type;location;lat;lon;timestamp;temperature;humidity
1996;DHT22;38556;47.068;15.408;2022-11-04T00:01:48;13.20;99.90
1996;DHT22;38556;47.068;15.408;2022-11-04T00:04:19;13.00;99.90
1996;DHT22;38556;47.068;15.408;2022-11-04T00:06:47;12.90;99.90
1996;DHT22;38556;47.068;15.408;2022-11-04T00:09:17;12.80;99.90
1996;DHT22;38556;47.068;15.408;2022-11-04T00:11:45;12.80;99.90
1996;DHT22;38556;47.068;15.408;2022-11-04T00:14:30;13.00;99.90
1996;DHT22;38556;47.068;15.408;2022-11-04T00:16:58;13.00;99.90
1996;DHT22;38556;47.068;15.408;2022-11-04T00:19:45;13.00;99.90
1996;DHT22;38556;47.068;15.408;2022-11-04T00:22:29;13.10;99.90
1996;DHT22;38556;47.068;15.408;2022-11-04T00:25:14;13.20;99.90
1996;DHT22;38556;47.068;15.408;2022-11-04T00:28:08;13.10;99.90
1996;DHT22;38556;47.068;15.408;2022-11-04T00:30:55;13.20;99.90
1996;DHT22;38556;47.068;15.408;2022-11-04T00:33:22;13.30;99.90
1996;DHT22;38556;47.068;15.408;2022-11-04T00:35:55;13.30;99.90
1996;DHT22;38556;47.068;15.408;2022-11-04T00:38:23;13.40;99.90
1996;DHT22;38556;47.068;15.408;2022-11-04T00:40:51;13.40;99.90
1996;DHT22;38556;47.068;15.408;2022-11-04T00:43:19;13.40;99.90
1996;DHT22;38556;47.068;15.408;2022-11-04T00:45:46;13.30;99.90
1996;DHT22;38556;47.068;15.408;2022-11-04T00:48:13;13.30;99.90
1996;DHT22;38556;47.068;15.408;2022-11-04T00:50:41;13.40;99.90
1996;DHT22;38556;47.068;15.408;2022-11-04T00:53:09;13.40;99.90
1996;DHT22;38556;47.068;15.408;2022-11-04T00:55:37;13.40;99.90
1996;DHT22;38556;47.068;15.408;2022-11-04T00:58:04;13.30;99.90
1996;DHT22;38556;47.068;15.408;2022-11-04T01:00:32;13.30;99.90
1996;DHT22;38556;47.068;15.408;2022-11-04T01:02:59;13.30;99.90
1996;DHT22;38556;47.068;15.408;2022-11-04T01:05:27;13.40;99.90
1996;DHT22;38556;47.068;15.408;2022-11-04T01:07:55;13.40;99.90
1996;DHT22;38556;47.068;15.408;2022-11-04T01:10:24;13.40;99.90
1996;DHT22;38556;47.068;15.408;2022-11-04T01:12:51;13.50;99.90
1996;DHT22;38556;47.068;15.408;2022-11-04T01:15:19;13.50;99.90
1996;DHT22;38556;47.068;15.408;2022-11-04T01:17:46;13.50;99.90
1996;DHT22;38556;47.068;15.408;2022-11-04T01:20:14;13.50;99.90
1996;DHT22;38556;47.068;15.408;2022-11-04T01:22:42;13.60;99.90
1996;DHT22;38556;47.068;15.408;2022-11-04T01:25:10;13.60;99.90
1996;DHT22;38556;47.068;15.408;2022-11-04T01:27:38;13.50;99.90
1996;DHT22;38556;47.068;15.408;2022-11-04T01:30:07;13.50;99.90
1996;DHT22;38556;47.068;15.408;2022-11-04T01:32:34;13.50;99.90
1996;DHT22;38556;47.068;15.408;2022-11-04T01:35:03;13.50;99.90
1996;DHT22;38556;47.068;15.408;2022-11-04T01:37:30;15.10;99.90
1996;DHT22;38556;47.068;15.408;2022-11-04T01:39:57;13.50;99.90
1996;DHT22;38556;47.068;15.408;2022-11-04T01:42:25;13.50;99.90
1996;DHT22;38556;47.068;15.408;2022-11-04T01:44:55;13.40;99.90
1996;DHT22;38556;47.068;15.408;2022-11-04T01:47:28;13.40;99.90
1996;DHT22;38556;47.068;15.408;2022-11-04T01:50:00;13.50;99.90
1996;DHT22;38556;47.068;15.408;2022-11-04T01:52:33;13.30;99.90
1996;DHT22;38556;47.068;15.408;2022-11-04T01:55:07;13.10;99.90
1996;DHT22;38556;47.068;15.408;2022-11-04T01:57:40;12.90;99.90
1996;DHT22;38556;47.068;15.408;2022-11-04T02:00:11;12.80;99.90
1996;DHT22;38556;47.068;15.408;2022-11-04T02:02:45;12.80;99.90
1996;DHT22;38556;47.068;15.408;2022-11-04T02:05:16;13.00;99.90
1996;DHT22;38556;47.068;15.408;2022-11-04T02:07:43;13.00;99.90
1996;DHT22;38556;47.068;15.408;2022-11-04T02:10:11;13.00;99.90
1996;DHT22;38556;47.068;15.408;2022-11-04T02:12:39;13.10;99.90
1996;DHT22;38556;47.068;15.408;2022-11-04T02:15:16;13.20;99.90
1996;DHT22;38556;47.068;15.408;2022-11-04T02:18:02;13.00;99.90
1996;DHT22;38556;47.068;15.408;2022-11-04T02:20:59;12.80;99.90
1996;DHT22;38556;47.068;15.408;2022-11-04T02:27:13;12.80;99.90
1996;DHT22;38556;47.068;15.408;2022-11-04T02:29:58;13.00;99.90
1996;DHT22;38556;47.068;15.408;2022-11-04T02:32:33;13.10;99.90
1996;DHT22;38556;47.068;15.408;2022-11-04T02:35:09;13.10;99.90
1996;DHT22;38556;47.068;15.408;2022-11-04T02:37:44;13.10;99.90
1996;DHT22;38556;47.068;15.408;2022-11-04T02:40:23;13.20;99.90
1996;DHT22;38556;47.068;15.408;2022-11-04T02:42:56;13.20;99.90
1996;DHT22;38556;47.068;15.408;2022-11-04T02:45:34;13.30;99.90
1996;DHT22;38556;47.068;15.408;2022-11-04T02:48:06;13.30;99.90
1996;DHT22;38556;47.068;15.408;2022-11-04T02:50:40;13.30;99.90
1996;DHT22;38556;47.068;15.408;2022-11-04T02:53:13;13.30;99.90
1996;DHT22;38556;47.068;15.408;2022-11-04T02:55:44;13.40;99.90
1996;DHT22;38556;47.068;15.408;2022-11-04T02:58:15;13.40;99.90
1996;DHT22;38556;47.068;15.408;2022-11-04T03:00:47;13.40;99.90
1996;DHT22;38556;47.068;15.408;2022-11-04T03:03:18;13.30;99.90
1996;DHT22;38556;47.068;15.408;2022-11-04T03:05:49;13.30;99.90
1996;DHT22;38556;47.068;15.408;2022-11-04T03:08:21;13.20;99.90
1996;DHT22;38556;47.068;15.408;2022-11-04T03:10:55;13.20;99.90
1996;DHT22;38556;47.068;15.408;2022-11-04T03:13:27;13.20;99.90
1996;DHT22;38556;47.068;15.408;2022-11-04T03:16:00;13.30;99.90
1996;DHT22;38556;47.068;15.408;2022-11-04T03:18:32;13.30;99.90
1996;DHT22;38556;47.068;15.408;2022-11-04T03:21:07;13.40;99.90
1996;DHT22;38556;47.068;15.408;2022-11-04T03:23:36;13.40;99.90
1996;DHT22;38556;47.068;15.408;2022-11-04T03:26:08;13.40;99.90
1996;DHT22;38556;47.068;15.408;2022-11-04T03:28:41;13.40;99.90
1996;DHT22;38556;47.068;15.408;2022-11-04T03:31:18;13.50;99.90
1996;DHT22;38556;47.068;15.408;2022-11-04T03:33:50;13.30;99.90
1996;DHT22;38556;47.068;15.408;2022-11-04T03:36:18;13.30;99.90
1996;DHT22;38556;47.068;15.408;2022-11-04T03:38:47;13.30;99.90
1996;DHT22;38556;47.068;15.408;2022-11-04T03:41:18;13.10;99.90
1996;DHT22;38556;47.068;15.408;2022-11-04T03:43:48;12.70;99.90
1996;DHT22;38556;47.068;15.408;2022-11-04T03:46:18;12.70;99.90
1996;DHT22;38556;47.068;15.408;2022-11-04T03:48:47;12.80;99.90
1996;DHT22;38556;47.068;15.408;2022-11-04T03:51:17;12.70;99.90
1996;DHT22;38556;47.068;15.408;2022-11-04T03:53:44;12.70;99.90
1996;DHT22;38556;47.068;15.408;2022-11-04T03:56:28;12.80;99.90
1996;DHT22;38556;47.068;15.408;2022-11-04T03:59:10;13.00;99.90
1996;DHT22;38556;47.068;15.408;2022-11-04T04:01:48;13.00;99.90
1996;DHT22;38556;47.068;15.408;2022-11-04T04:04:22;12.90;99.90
1996;DHT22;38556;47.068;15.408;2022-11-04T04:06:54;12.90;99.90
1996;DHT22;38556;47.068;15.408;2022-11-04T04:09:25;12.80;99.90
1996;DHT22;38556;47.068;15.408;2022-11-04T04:11:57;12.70;99.90
1996;DHT22;38556;47.068;15.408;2022-11-04T04:14:31;12.80;99.90
1996;DHT22;38556;47.068;15.408;2022-11-04T04:17:12;13.00;99.90
1996;DHT22;38556;47.068;15.408;2022-11-04T04:19:44;13.00;99.90
1996;DHT22;38556;47.068;15.408;2022-11-04T04:22:16;13.10;99.90
1996;DHT22;38556;47.068;15.408;2022-11-04T04:24:46;13.20;99.90
1996;DHT22;38556;47.068;15.408;2022-11-04T04:27:33;13.30;99.90
1996;DHT22;38556;47.068;15.408;2022-11-04T04:30:03;13.30;99.90
1996;DHT22;38556;47.068;15.408;2022-11-04T04:32:36;13.30;99.90
1996;DHT22;38556;47.068;15.408;2022-11-04T04:35:05;13.00;99.90
1996;DHT22;38556;47.068;15.408;2022-11-04T04:37:52;12.90;99.90
1996;DHT22;38556;47.068;15.408;2022-11-04T04:40:23;12.90;99.90
1996;DHT22;38556;47.068;15.408;2022-11-04T04:43:14;13.10;99.90
1996;DHT22;38556;47.068;15.408;2022-11-04T04:45:59;13.10;99.90
1996;DHT22;38556;47.068;15.408;2022-11-04T04:48:29;13.10;99.90
1996;DHT22;38556;47.068;15.408;2022-11-04T04:50:57;13.10;99.90
1996;DHT22;38556;47.068;15.408;2022-11-04T04:53:27;13.10;99.90
1996;DHT22;38556;47.068;15.408;2022-11-04T04:55:54;12.80;99.90
1996;DHT22;38556;47.068;15.408;2022-11-04T04:58:22;12.90;99.90
1996;DHT22;38556;47.068;15.408;2022-11-04T05:00:49;12.90;99.90
1996;DHT22;38556;47.068;15.408;2022-11-04T05:03:17;12.80;99.90
1996;DHT22;38556;47.068;15.408;2022-11-04T05:05:45;12.90;99.90
1996;DHT22;38556;47.068;15.408;2022-11-04T05:08:13;12.90;99.90
1996;DHT22;38556;47.068;15.408;2022-11-04T05:10:40;13.00;99.90
1996;DHT22;38556;47.068;15.408;2022-11-04T05:13:08;12.80;99.90
1996;DHT22;38556;47.068;15.408;2022-11-04T05:15:55;12.80;99.90
1996;DHT22;38556;47.068;15.408;2022-11-04T05:18:23;12.80;99.90
1996;DHT22;38556;47.068;15.408;2022-11-04T05:20:52;12.80;99.90
1996;DHT22;38556;47.068;15.408;2022-11-04T05:23:19;12.90;99.90
1996;DHT22;38556;47.068;15.408;2022-11-04T05:25:47;13.00;99.90
1996;DHT22;38556;47.068;15.408;2022-11-04T05:28:14;13.10;99.90
1996;DHT22;38556;47.068;15.408;2022-11-04T05:30:41;13.10;99.90
1996;DHT22;38556;47.068;15.408;2022-11-04T05:33:09;12.90;99.90
1996;DHT22;38556;47.068;15.408;2022-11-04T05:35:36;12.90;99.90
1996;DHT22;38556;47.068;15.408;2022-11-04T05:38:04;12.90;99.90
1996;DHT22;38556;47.068;15.408;2022-11-04T05:40:32;12.60;99.90
1996;DHT22;38556;47.068;15.408;2022-11-04T05:42:59;12.70;99.90
1996;DHT22;38556;47.068;15.408;2022-11-04T05:45:27;12.60;99.90
1996;DHT22;38556;47.068;15.408;2022-11-04T05:47:58;12.50;99.90
1996;DHT22;38556;47.068;15.408;2022-11-04T05:50:27;14.50;99.90
1996;DHT22;38556;47.068;15.408;2022-11-04T05:52:55;12.70;99.90
1996;DHT22;38556;47.068;15.408;2022-11-04T05:55:24;12.80;99.90
1996;DHT22;38556;47.068;15.408;2022-11-04T05:57:52;12.90;99.90
1996;DHT22;38556;47.068;15.408;2022-11-04T06:02:47;13.10;99.90
1996;DHT22;38556;47.068;15.408;2022-11-04T06:05:15;13.20;99.90
1996;DHT22;38556;47.068;15.408;2022-11-04T06:07:42;13.20;99.90
1996;DHT22;38556;47.068;15.408;2022-11-04T06:10:10;13.30;99.90
1996;DHT22;38556;47.068;15.408;2022-11-04T06:12:39;13.30;99.90
1996;DHT22;38556;47.068;15.408;2022-11-04T06:15:06;13.20;99.90
1996;DHT22;38556;47.068;15.408;2022-11-04T06:17:34;13.00;99.90
1996;DHT22;38556;47.068;15.408;2022-11-04T06:20:03;13.00;99.90
1996;DHT22;38556;47.068;15.408;2022-11-04T06:22:30;12.90;99.90
1996;DHT22;38556;47.068;15.408;2022-11-04T06:24:58;12.90;99.90
1996;DHT22;38556;47.068;15.408;2022-11-04T06:27:25;13.00;99.90
1996;DHT22;38556;47.068;15.408;2022-11-04T06:29:54;13.00;99.90
1996;DHT22;38556;47.068;15.408;2022-11-04T06:32:21;13.10;99.90
1996;DHT22;38556;47.068;15.408;2022-11-04T06:34:49;13.10;99.90
1996;DHT22;38556;47.068;15.408;2022-11-04T06:37:16;13.10;99.90
1996;DHT22;38556;47.068;15.408;2022-11-04T06:39:43;13.20;99.90
1996;DHT22;38556;47.068;15.408;2022-11-04T06:42:11;13.20;99.90
1996;DHT22;38556;47.068;15.408;2022-11-04T06:44:38;13.20;99.90
1996;DHT22;38556;47.068;15.408;2022-11-04T06:47:08;13.40;99.90
1996;DHT22;38556;47.068;15.408;2022-11-04T06:49:35;13.40;99.90
1996;DHT22;38556;47.068;15.408;2022-11-04T06:52:03;13.40;99.90
1996;DHT22;38556;47.068;15.408;2022-11-04T06:54:30;13.50;99.90
1996;DHT22;38556;47.068;15.408;2022-11-04T06:56:58;13.60;99.90
1996;DHT22;38556;47.068;15.408;2022-11-04T06:59:25;13.60;99.90
1996;DHT22;38556;47.068;15.408;2022-11-04T07:01:53;13.60;99.90
1996;DHT22;38556;47.068;15.408;2022-11-04T07:04:21;13.50;99.90
1996;DHT22;38556;47.068;15.408;2022-11-04T07:06:49;13.50;99.90
1996;DHT22;38556;47.068;15.408;2022-11-04T07:09:16;13.60;99.90
1996;DHT22;38556;47.068;15.408;2022-11-04T07:11:44;13.60;99.90
1996;DHT22;38556;47.068;15.408;2022-11-04T07:14:12;13.70;99.90
1996;DHT22;38556;47.068;15.408;2022-11-04T07:16:39;13.70;99.90
1996;DHT22;38556;47.068;15.408;2022-11-04T07:19:06;13.80;99.90
1996;DHT22;38556;47.068;15.408;2022-11-04T07:21:35;13.80;99.90
1996;DHT22;38556;47.068;15.408;2022-11-04T07:24:03;13.70;99.90
1996;DHT22;38556;47.068;15.408;2022-11-04T07:26:30;13.80;99.90
1996;DHT22;38556;47.068;15.408;2022-11-04T07:28:58;13.80;99.90
1996;DHT22;38556;47.068;15.408;2022-11-04T07:31:26;13.80;99.90
1996;DHT22;38556;47.068;15.408;2022-11-04T07:33:54;13.70;99.90
1996;DHT22;38556;47.068;15.408;2022-11-04T07:36:21;13.70;99.90
1996;DHT22;38556;47.068;15.408;2022-11-04T07:38:50;13.70;99.90
1996;DHT22;38556;47.068;15.408;2022-11-04T07:41:17;13.70;99.90
1996;DHT22;38556;47.068;15.408;2022-11-04T07:43:48;13.70;99.90
1996;DHT22;38556;47.068;15.408;2022-11-04T07:46:15;13.70;99.90
1996;DHT22;38556;47.068;15.408;2022-11-04T07:48:43;13.70;99.90
1996;DHT22;38556;47.068;15.408;2022-11-04T07:51:12;13.70;99.90
1996;DHT22;38556;47.068;15.408;2022-11-04T07:53:41;13.70;99.90
1996;DHT22;38556;47.068;15.408;2022-11-04T07:56:11;13.70;99.90
1996;DHT22;38556;47.068;15.408;2022-11-04T07:58:38;13.60;99.90
1996;DHT22;38556;47.068;15.408;2022-11-04T08:01:08;13.50;99.90
1996;DHT22;38556;47.068;15.408;2022-11-04T08:03:36;13.50;99.90
1996;DHT22;38556;47.068;15.408;2022-11-04T08:06:06;13.50;99.90
1996;DHT22;38556;47.068;15.408;2022-11-04T08:11:04;13.60;99.90
1996;DHT22;38556;47.068;15.408;2022-11-04T08:13:34;13.70;99.90
1996;DHT22;38556;47.068;15.408;2022-11-04T08:16:03;13.70;99.90
1996;DHT22;38556;47.068;15.408;2022-11-04T08:18:31;13.70;99.90
1996;DHT22;38556;47.068;15.408;2022-11-04T08:20:59;13.70;99.90
1996;DHT22;38556;47.068;15.408;2022-11-04T08:23:27;13.70;99.90
1996;DHT22;38556;47.068;15.408;2022-11-04T08:25:55;13.70;99.90
1996;DHT22;38556;47.068;15.408;2022-11-04T08:28:23;13.70;99.90
1996;DHT22;38556;47.068;15.408;2022-11-04T08:30:53;13.70;99.90
1996;DHT22;38556;47.068;15.408;2022-11-04T08:33:22;13.80;99.90
1996;DHT22;38556;47.068;15.408;2022-11-04T08:35:50;13.80;99.90
1996;DHT22;38556;47.068;15.408;2022-11-04T08:38:17;13.80;99.90
1996;DHT22;38556;47.068;15.408;2022-11-04T08:40:45;13.80;99.90
1996;DHT22;38556;47.068;15.408;2022-11-04T08:45:41;13.80;99.90
1996;DHT22;38556;47.068;15.408;2022-11-04T08:48:10;13.80;99.90
1996;DHT22;38556;47.068;15.408;2022-11-04T08:50:38;13.80;99.90
1996;DHT22;38556;47.068;15.408;2022-11-04T08:53:05;13.80;99.90
1996;DHT22;38556;47.068;15.408;2022-11-04T08:55:33;13.80;99.90
1996;DHT22;38556;47.068;15.408;2022-11-04T08:58:01;13.80;99.90
1996;DHT22;38556;47.068;15.408;2022-11-04T09:00:28;13.80;99.90
1996;DHT22;38556;47.068;15.408;2022-11-04T09:02:57;13.80;99.90
1996;DHT22;38556;47.068;15.408;2022-11-04T09:05:27;13.70;99.90
1996;DHT22;38556;47.068;15.408;2022-11-04T09:07:54;13.70;99.90
1996;DHT22;38556;47.068;15.408;2022-11-04T09:10:22;13.60;99.90
1996;DHT22;38556;47.068;15.408;2022-11-04T09:12:49;13.60;99.90
1996;DHT22;38556;47.068;15.408;2022-11-04T09:15:17;13.60;99.90
1996;DHT22;38556;47.068;15.408;2022-11-04T09:17:44;13.70;99.90
1996;DHT22;38556;47.068;15.408;2022-11-04T09:20:11;13.70;99.90
1996;DHT22;38556;47.068;15.408;2022-11-04T09:22:40;13.70;99.90
1996;DHT22;38556;47.068;15.408;2022-11-04T09:25:08;13.80;99.90
1996;DHT22;38556;47.068;15.408;2022-11-04T09:27:36;13.80;99.90
1996;DHT22;38556;47.068;15.408;2022-11-04T09:30:03;13.80;99.90
1996;DHT22;38556;47.068;15.408;2022-11-04T09:32:31;13.80;99.90
1996;DHT22;38556;47.068;15.408;2022-11-04T09:34:58;13.80;99.90
1996;DHT22;38556;47.068;15.408;2022-11-04T09:37:26;13.70;99.90
1996;DHT22;38556;47.068;15.408;2022-11-04T09:39:54;13.70;99.90
1996;DHT22;38556;47.068;15.408;2022-11-04T09:42:30;13.80;99.90
1996;DHT22;38556;47.068;15.408;2022-11-04T09:45:04;13.70;99.90
1996;DHT22;38556;47.068;15.408;2022-11-04T09:47:35;13.80;99.90
1996;DHT22;38556;47.068;15.408;2022-11-04T09:50:07;13.90;99.90
1996;DHT22;38556;47.068;15.408;2022-11-04T09:52:42;13.90;99.90
1996;DHT22;38556;47.068;15.408;2022-11-04T09:55:15;13.80;99.90
1996;DHT22;38556;47.068;15.408;2022-11-04T09:57:44;13.90;99.90
1996;DHT22;38556;47.068;15.408;2022-11-04T10:00:14;13.90;99.90
1996;DHT22;38556;47.068;15.408;2022-11-04T10:02:50;13.80;99.90
1996;DHT22;38556;47.068;15.408;2022-11-04T10:08:14;13.80;99.90
1996;DHT22;38556;47.068;15.408;2022-11-04T10:10:54;13.80;99.90
1996;DHT22;38556;47.068;15.408;2022-11-04T10:13:32;13.80;99.90
1996;DHT22;38556;47.068;15.408;2022-11-04T10:16:13;13.80;99.90
1996;DHT22;38556;47.068;15.408;2022-11-04T10:19:02;13.70;99.90
1996;DHT22;38556;47.068;15.408;2022-11-04T10:21:40;13.80;99.90
1996;DHT22;38556;47.068;15.408;2022-11-04T10:24:17;13.80;99.90
1996;DHT22;38556;47.068;15.408;2022-11-04T10:26:52;13.80;99.90
1996;DHT22;38556;47.068;15.408;2022-11-04T10:29:28;13.60;99.90
1996;DHT22;38556;47.068;15.408;2022-11-04T10:31:59;13.70;99.90
1996;DHT22;38556;47.068;15.408;2022-11-04T10:34:33;13.60;99.90
1996;DHT22;38556;47.068;15.408;2022-11-04T10:37:03;13.60;99.90
1996;DHT22;38556;47.068;15.408;2022-11-04T10:39:33;13.60;99.90
1996;DHT22;38556;47.068;15.408;2022-11-04T10:42:05;13.60;99.90
1996;DHT22;38556;47.068;15.408;2022-11-04T10:44:33;13.60;99.90
1996;DHT22;38556;47.068;15.408;2022-11-04T10:47:10;13.50;99.90
1996;DHT22;38556;47.068;15.408;2022-11-04T10:50:01;13.50;99.90
1996;DHT22;38556;47.068;15.408;2022-11-04T10:52:32;13.40;99.90
1996;DHT22;38556;47.068;15.408;2022-11-04T10:55:02;13.40;99.90
1996;DHT22;38556;47.068;15.408;2022-11-04T10:57:32;13.40;99.90
1996;DHT22;38556;47.068;15.408;2022-11-04T11:00:00;13.40;99.90
1996;DHT22;38556;47.068;15.408;2022-11-04T11:02:45;13.40;99.90
1996;DHT22;38556;47.068;15.408;2022-11-04T11:05:20;13.30;99.90
1996;DHT22;38556;47.068;15.408;2022-11-04T11:07:50;13.20;99.90
1996;DHT22;38556;47.068;15.408;2022-11-04T11:10:20;13.20;99.90
1996;DHT22;38556;47.068;15.408;2022-11-04T11:12:57;13.30;99.90
1996;DHT22;38556;47.068;15.408;2022-11-04T11:15:32;13.30;99.90
1996;DHT22;38556;47.068;15.408;2022-11-04T11:18:18;13.30;99.90
1996;DHT22;38556;47.068;15.408;2022-11-04T11:20:48;13.30;99.90
1996;DHT22;38556;47.068;15.408;2022-11-04T11:23:36;13.30;99.90
1996;DHT22;38556;47.068;15.408;2022-11-04T11:26:06;13.40;99.90
1996;DHT22;38556;47.068;15.408;2022-11-04T11:28:36;13.40;99.90
1996;DHT22;38556;47.068;15.408;2022-11-04T11:31:07;13.40;99.90
1996;DHT22;38556;47.068;15.408;2022-11-04T11:33:50;13.40;99.90
1996;DHT22;38556;47.068;15.408;2022-11-04T11:36:21;13.40;99.90
1996;DHT22;38556;47.068;15.408;2022-11-04T11:39:13;13.40;99.90
1996;DHT22;38556;47.068;15.408;2022-11-04T11:41:51;13.40;99.90
1996;DHT22;38556;47.068;15.408;2022-11-04T11:44:25;13.40;99.90
1996;DHT22;38556;47.068;15.408;2022-11-04T11:46:58;13.20;99.90
1996;DHT22;38556;47.068;15.408;2022-11-04T11:52:16;13.20;99.90
1996;DHT22;38556;47.068;15.408;2022-11-04T11:54:52;13.30;99.90
1996;DHT22;38556;47.068;15.408;2022-11-04T11:57:32;13.40;99.90
1996;DHT22;38556;47.068;15.408;2022-11-04T12:00:07;13.40;99.90
1996;DHT22;38556;47.068;15.408;2022-11-04T12:02:41;13.30;99.90
1996;DHT22;38556;47.068;15.408;2022-11-04T12:05:12;13.30;99.90
1996;DHT22;38556;47.068;15.408;2022-11-04T12:07:45;13.20;99.90
1996;DHT22;38556;47.068;15.408;2022-11-04T12:10:24;13.10;99.90
1996;DHT22;38556;47.068;15.408;2022-11-04T12:13:03;13.10;99.90
1996;DHT22;38556;47.068;15.408;2022-11-04T12:15:44;13.30;99.90
1996;DHT22;38556;47.068;15.408;2022-11-04T12:20:57;13.00;99.90
1996;DHT22;38556;47.068;15.408;2022-11-04T12:23:29;13.00;99.90
1996;DHT22;38556;47.068;15.408;2022-11-04T12:26:08;13.10;99.90
1996;DHT22;38556;47.068;15.408;2022-11-04T12:28:46;13.10;99.90
1996;DHT22;38556;47.068;15.408;2022-11-04T12:31:26;13.20;99.90
1996;DHT22;38556;47.068;15.408;2022-11-04T12:34:05;13.20;99.90
1996;DHT22;38556;47.068;15.408;2022-11-04T12:36:45;13.30;99.90
1996;DHT22;38556;47.068;15.408;2022-11-04T12:39:29;13.40;99.90
1996;DHT22;38556;47.068;15.408;2022-11-04T12:42:11;13.40;99.90
1996;DHT22;38556;47.068;15.408;2022-11-04T12:44:45;13.40;99.90
1996;DHT22;38556;47.068;15.408;2022-11-04T12:47:28;13.40;99.90
1996;DHT22;38556;47.068;15.408;2022-11-04T12:50:19;13.40;99.90
1996;DHT22;38556;47.068;15.408;2022-11-04T12:53:02;13.40;99.90
1996;DHT22;38556;47.068;15.408;2022-11-04T12:55:42;13.40;99.90
1996;DHT22;38556;47.068;15.408;2022-11-04T12:58:24;13.40;99.90
1996;DHT22;38556;47.068;15.408;2022-11-04T13:00:57;13.20;99.90
1996;DHT22;38556;47.068;15.408;2022-11-04T13:03:32;13.20;99.90
1996;DHT22;38556;47.068;15.408;2022-11-04T13:06:03;13.30;99.90
1996;DHT22;38556;47.068;15.408;2022-11-04T13:08:36;13.40;99.90
1996;DHT22;38556;47.068;15.408;2022-11-04T13:11:08;13.40;99.90
1996;DHT22;38556;47.068;15.408;2022-11-04T13:13:55;13.30;99.90
1996;DHT22;38556;47.068;15.408;2022-11-04T13:16:24;13.30;99.90
1996;DHT22;38556;47.068;15.408;2022-11-04T13:18:56;13.40;99.90
1996;DHT22;38556;47.068;15.408;2022-11-04T13:21:26;13.40;99.90
1996;DHT22;38556;47.068;15.408;2022-11-04T13:24:01;13.40;99.90
1996;DHT22;38556;47.068;15.408;2022-11-04T13:26:30;13.40;99.90
1996;DHT22;38556;47.068;15.408;2022-11-04T13:29:04;13.50;99.90
1996;DHT22;38556;47.068;15.408;2022-11-04T13:31:40;13.60;99.90
1996;DHT22;38556;47.068;15.408;2022-11-04T13:34:18;13.60;99.90
1996;DHT22;38556;47.068;15.408;2022-11-04T13:36:51;13.60;99.90
1996;DHT22;38556;47.068;15.408;2022-11-04T13:39:26;13.60;99.90
1996;DHT22;38556;47.068;15.408;2022-11-04T13:42:14;13.50;99.90
1996;DHT22;38556;47.068;15.408;2022-11-04T13:44:47;13.20;99.90
1996;DHT22;38556;47.068;15.408;2022-11-04T13:47:18;13.00;99.90
1996;DHT22;38556;47.068;15.408;2022-11-04T13:49:50;12.90;99.90
1996;DHT22;38556;47.068;15.408;2022-11-04T13:52:18;12.70;99.90
1996;DHT22;38556;47.068;15.408;2022-11-04T13:54:52;12.60;99.90
1996;DHT22;38556;47.068;15.408;2022-11-04T13:57:23;12.60;99.90
1996;DHT22;38556;47.068;15.408;2022-11-04T14:00:19;12.40;99.90
1996;DHT22;38556;47.068;15.408;2022-11-04T14:02:48;12.30;99.90
1996;DHT22;38556;47.068;15.408;2022-11-04T14:05:54;12.10;99.90
1996;DHT22;38556;47.068;15.408;2022-11-04T14:08:26;11.80;99.90
1996;DHT22;38556;47.068;15.408;2022-11-04T14:11:09;11.60;99.90
1996;DHT22;38556;47.068;15.408;2022-11-04T14:14:01;11.00;99.90
1996;DHT22;38556;47.068;15.408;2022-11-04T14:16:40;10.90;99.90
1996;DHT22;38556;47.068;15.408;2022-11-04T14:22:47;10.70;99.90
1996;DHT22;38556;47.068;15.408;2022-11-04T14:25:24;10.80;99.90
1996;DHT22;38556;47.068;15.408;2022-11-04T14:35:02;10.10;99.90
1996;DHT22;38556;47.068;15.408;2022-11-04T14:37:32;10.10;99.90
1996;DHT22;38556;47.068;15.408;2022-11-04T14:40:02;10.10;99.90
1996;DHT22;38556;47.068;15.408;2022-11-04T14:42:47;10.20;99.90
1996;DHT22;38556;47.068;15.408;2022-11-04T14:45:17;10.20;99.90
1996;DHT22;38556;47.068;15.408;2022-11-04T14:47:50;10.20;99.90
1996;DHT22;38556;47.068;15.408;2022-11-04T14:50:24;10.20;99.90
1996;DHT22;38556;47.068;15.408;2022-11-04T14:52:54;10.20;99.90
1996;DHT22;38556;47.068;15.408;2022-11-04T14:55:24;10.30;99.90
1996;DHT22;38556;47.068;15.408;2022-11-04T14:57:55;10.10;99.90
1996;DHT22;38556;47.068;15.408;2022-11-04T15:00:34;10.00;99.90
1996;DHT22;38556;47.068;15.408;2022-11-04T15:03:11;10.20;99.90
1996;DHT22;38556;47.068;15.408;2022-11-04T15:05:46;10.50;99.90
1996;DHT22;38556;47.068;15.408;2022-11-04T15:08:25;10.90;99.90
1996;DHT22;38556;47.068;15.408;2022-11-04T15:10:57;11.00;99.90
1996;DHT22;38556;47.068;15.408;2022-11-04T15:13:26;10.80;99.90
1996;DHT22;38556;47.068;15.408;2022-11-04T15:15:55;10.60;99.90
1996;DHT22;38556;47.068;15.408;2022-11-04T15:18:27;10.30;99.90
1996;DHT22;38556;47.068;15.408;2022-11-04T15:20:57;10.30;99.90
1996;DHT22;38556;47.068;15.408;2022-11-04T15:23:27;10.10;99.90
1996;DHT22;38556;47.068;15.408;2022-11-04T15:25:56;10.10;99.90
1996;DHT22;38556;47.068;15.408;2022-11-04T15:28:26;10.10;99.90
1996;DHT22;38556;47.068;15.408;2022-11-04T15:31:06;10.00;99.90
1996;DHT22;38556;47.068;15.408;2022-11-04T15:33:39;10.00;99.90
1996;DHT22;38556;47.068;15.408;2022-11-04T15:36:15;10.00;99.90
1996;DHT22;38556;47.068;15.408;2022-11-04T15:38:46;10.00;99.90
1996;DHT22;38556;47.068;15.408;2022-11-04T15:41:14;10.00;99.90
1996;DHT22;38556;47.068;15.408;2022-11-04T15:44:00;10.00;99.90
1996;DHT22;38556;47.068;15.408;2022-11-04T15:46:27;9.90;99.90
1996;DHT22;38556;47.068;15.408;2022-11-04T15:49:03;10.00;99.90
1996;DHT22;38556;47.068;15.408;2022-11-04T15:51:38;10.00;99.90
1996;DHT22;38556;47.068;15.408;2022-11-04T15:54:17;10.10;99.90
1996;DHT22;38556;47.068;15.408;2022-11-04T15:56:48;10.00;99.90
1996;DHT22;38556;47.068;15.408;2022-11-04T15:59:20;10.00;99.90
1996;DHT22;38556;47.068;15.408;2022-11-04T16:01:50;10.00;99.90
1996;DHT22;38556;47.068;15.408;2022-11-04T16:04:21;10.00;99.90
1996;DHT22;38556;47.068;15.408;2022-11-04T16:07:06;9.90;99.90
1996;DHT22;38556;47.068;15.408;2022-11-04T16:09:47;9.90;99.90
1996;DHT22;38556;47.068;15.408;2022-11-04T16:12:16;9.90;99.90
1996;DHT22;38556;47.068;15.408;2022-11-04T16:14:52;9.90;99.90
1996;DHT22;38556;47.068;15.408;2022-11-04T16:17:21;9.90;99.90
1996;DHT22;38556;47.068;15.408;2022-11-04T16:19:51;9.90;99.90
1996;DHT22;38556;47.068;15.408;2022-11-04T16:22:25;9.90;99.90
1996;DHT22;38556;47.068;15.408;2022-11-04T16:24:55;9.90;99.90
1996;DHT22;38556;47.068;15.408;2022-11-04T16:27:23;9.90;99.90
1996;DHT22;38556;47.068;15.408;2022-11-04T16:29:55;9.90;99.90
1996;DHT22;38556;47.068;15.408;2022-11-04T16:32:26;9.90;99.90
1996;DHT22;38556;47.068;15.408;2022-11-04T16:34:57;9.90;99.90